Time;durP1;ratioP1;P1;durP2;ratioP2;P2;SDS_P1;SDS_P2;PMS_P1;PMS_P2;Temp;Humidity;BMP_temperature;BMP_pressure;BME280_temperature;BME280_humidity;BME280_pressure;Samples;Min_cycle;Max_cycle;Signal;HPM_P1;HPM_P2
2023/01/20 00:01:05;;;;;;;1.20;0.30;;;;;;;8.90;65.66;94036.44;5048935;28;20624;-78
2023/01/20 00:03:30;;;;;;;0.85;0.38;;;;;;;8.85;65.52;94058.94;5063968;28;20040;-80
2023/01/20 00:05:56;;;;;;;0.65;0.40;;;;;;;8.77;64.92;94068.63;5049964;28;20050;-77
2023/01/20 00:08:21;;;;;;;0.50;0.30;;;;;;;8.64;64.52;94046.75;5064599;28;20035;-80
2023/01/20 00:10:46;;;;;;;1.08;0.35;;;;;;;8.46;65.63;94020.00;5066132;28;20490;-80
2023/01/20 00:13:12;;;;;;;0.20;0.20;;;;;;;8.44;66.82;93975.09;5066440;28;20051;-79
2023/01/20 00:15:37;;;;;;;2.50;0.60;;;;;;;8.39;67.22;93935.38;5071445;28;20024;-80
2023/01/20 00:18:03;;;;;;;0.90;0.57;;;;;;;8.06;68.79;93863.00;5066306;28;20064;-79
2023/01/20 00:20:28;;;;;;;1.58;0.57;;;;;;;7.93;69.13;93811.84;5066849;28;20035;-77
2023/01/20 00:22:54;;;;;;;0.70;0.30;;;;;;;7.86;70.18;93814.09;5067017;28;20463;-78
2023/01/20 00:25:19;;;;;;;0.65;0.35;;;;;;;7.75;70.21;93833.63;5049193;28;20562;-78
2023/01/20 00:27:45;;;;;;;1.05;0.45;;;;;;;7.78;69.90;93870.25;5067373;28;20024;-79
2023/01/20 00:30:11;;;;;;;0.47;0.30;;;;;;;7.77;70.19;93874.22;5066446;28;20024;-77
2023/01/20 00:32:38;;;;;;;1.00;0.50;;;;;;;7.84;69.18;93855.56;5066491;28;20028;-80
2023/01/20 00:35:05;;;;;;;0.60;0.30;;;;;;;7.96;69.71;93878.59;5066176;28;20029;-78
2023/01/20 00:37:31;;;;;;;1.23;0.47;;;;;;;8.07;68.80;93865.28;5066384;28;20411;-78
2023/01/20 00:39:56;;;;;;;2.00;0.70;;;;;;;8.19;69.21;93866.44;5066396;28;20039;-78
2023/01/20 00:42:22;;;;;;;1.70;0.60;;;;;;;8.29;68.36;93865.28;5048772;28;20036;-79
2023/01/20 00:44:48;;;;;;;1.73;1.50;;;;;;;8.32;68.75;93836.25;5068004;28;20124;-78
2023/01/20 00:47:13;;;;;;;2.20;0.93;;;;;;;8.36;68.42;93840.41;5065561;28;20025;-79
2023/01/20 00:49:39;;;;;;;3.65;1.30;;;;;;;8.23;68.54;93829.50;5065666;28;20027;-79
2023/01/20 00:52:04;;;;;;;2.78;1.20;;;;;;;8.18;68.76;93813.66;5064990;28;20031;-78
2023/01/20 00:54:30;;;;;;;1.10;0.85;;;;;;;8.09;66.91;93823.81;5066288;28;20067;-78
2023/01/20 00:56:55;;;;;;;2.08;0.57;;;;;;;8.09;66.78;93835.53;5064659;28;20027;-79
2023/01/20 00:59:20;;;;;;;2.03;0.80;;;;;;;8.11;67.69;93838.56;5047481;28;20037;-79
2023/01/20 01:01:46;;;;;;;1.10;0.77;;;;;;;8.12;67.79;93840.09;5066011;28;20115;-78
2023/01/20 01:04:11;;;;;;;1.23;0.70;;;;;;;8.10;67.90;93833.53;5066151;28;20025;-78
2023/01/20 01:06:38;;;;;;;2.92;0.82;;;;;;;8.19;67.74;93809.69;5066591;28;20032;-78
2023/01/20 01:09:04;;;;;;;2.08;0.82;;;;;;;8.27;66.66;93821.16;5066559;28;20021;-78
2023/01/20 01:11:29;;;;;;;1.23;0.40;;;;;;;8.29;66.60;93807.03;5070211;28;20032;-78
2023/01/20 01:13:56;;;;;;;1.52;0.43;;;;;;;8.35;66.73;93802.47;5064724;28;20560;-79
2023/01/20 01:16:21;;;;;;;1.67;0.40;;;;;;;8.45;65.68;93815.03;5066631;28;20036;-78
2023/01/20 01:18:46;;;;;;;1.38;0.40;;;;;;;8.50;64.83;93814.47;5065643;28;20029;-78
2023/01/20 01:21:15;;;;;;;0.40;0.40;;;;;;;8.62;64.84;93808.09;5065516;28;20024;-79
2023/01/20 01:23:40;;;;;;;1.15;0.55;;;;;;;8.68;63.81;93814.53;5066889;28;20036;-79
2023/01/20 01:26:06;;;;;;;1.10;0.30;;;;;;;8.67;64.07;93823.97;5063565;28;20178;-80
2023/01/20 01:28:32;;;;;;;0.20;0.20;;;;;;;8.70;63.34;93814.06;5068147;28;20029;-79
2023/01/20 01:31:01;;;;;;;0.80;0.35;;;;;;;8.76;62.74;93815.75;5063313;28;20561;-79
2023/01/20 01:33:28;;;;;;;1.27;0.32;;;;;;;8.85;63.26;93806.81;5065170;28;20043;-79
2023/01/20 01:35:57;;;;;;;0.73;0.30;;;;;;;8.83;62.59;93813.94;5064736;28;20039;-80
2023/01/20 01:38:23;;;;;;;0.20;0.20;;;;;;;8.95;62.01;93799.38;5065521;28;20036;-80
2023/01/20 01:40:50;;;;;;;2.70;0.30;;;;;;;9.07;61.68;93801.22;5064532;28;20029;-79
2023/01/20 01:43:25;;;;;;;0.73;0.28;;;;;;;9.08;61.48;93812.97;5063961;28;20040;-80
2023/01/20 01:45:51;;;;;;;0.98;0.30;;;;;;;9.11;62.19;93803.81;5048179;28;20498;-80
2023/01/20 01:48:19;;;;;;;0.80;0.40;;;;;;;9.21;61.78;93806.13;5065012;28;20020;-80
2023/01/20 01:50:53;;;;;;;1.20;0.50;;;;;;;9.20;61.80;93799.09;5063932;28;20032;-80
2023/01/20 01:53:19;;;;;;;0.65;0.30;;;;;;;9.12;62.38;93802.59;5047606;28;20032;-79
2023/01/20 01:55:58;;;;;;;2.45;0.60;;;;;;;9.11;62.27;93814.78;5046606;28;20028;-79
2023/01/20 01:58:27;;;;;;;3.78;0.57;;;;;;;9.04;62.88;93832.28;5063674;28;20028;-79
2023/01/20 02:00:52;;;;;;;1.65;0.30;;;;;;;9.13;62.67;93813.13;5046980;28;20029;-79
2023/01/20 02:03:18;;;;;;;1.02;0.20;;;;;;;9.19;62.68;93810.53;5063683;28;20033;-80
2023/01/20 02:05:45;;;;;;;2.17;0.40;;;;;;;9.19;61.76;93810.53;5067820;28;20116;-81
2023/01/20 02:08:10;;;;;;;0.63;0.30;;;;;;;9.15;62.14;93810.69;5065452;28;20645;-79
2023/01/20 02:10:35;;;;;;;1.50;0.60;;;;;;;9.15;62.08;93805.19;5048286;28;20104;-79
2023/01/20 02:13:01;;;;;;;0.80;0.55;;;;;;;9.12;62.24;93803.38;5066520;28;20398;-79
2023/01/20 02:15:36;;;;;;;0.45;0.30;;;;;;;9.08;61.66;93802.75;5064407;28;20031;-79
2023/01/20 02:18:23;;;;;;;1.95;0.45;;;;;;;9.10;62.15;93800.31;5064481;28;20641;-79
2023/01/20 02:21:03;;;;;;;1.38;0.40;;;;;;;9.14;61.85;93784.47;5020665;28;20056;-79
2023/01/20 02:23:56;;;;;;;1.80;0.40;;;;;;;9.10;62.21;93789.34;5064977;28;20123;-78
2023/01/20 02:26:38;;;;;;;1.00;0.30;;;;;;;9.11;61.99;93801.81;5064380;28;20109;-80
2023/01/20 02:29:25;;;;;;;2.10;0.57;;;;;;;8.83;63.02;93798.28;5065848;28;20115;-79
2023/01/20 02:32:12;;;;;;;1.33;0.30;;;;;;;8.80;62.84;93790.19;5064749;28;20025;-79
2023/01/20 02:35:30;;;;;;;0.77;0.40;;;;;;;8.63;63.41;93782.22;5030255;28;20037;-79
2023/01/20 02:38:20;;;;;;;0.47;0.35;;;;;;;8.59;63.41;93778.88;5048852;28;20037;-79
2023/01/20 02:41:00;;;;;;;1.40;0.50;;;;;;;8.50;64.23;93776.13;5046165;28;20033;-80
2023/01/20 02:43:38;;;;;;;1.83;0.60;;;;;;;8.45;64.28;93763.75;5068011;28;20071;-78
2023/01/20 02:46:10;;;;;;;1.00;0.30;;;;;;;8.59;64.24;93769.88;5054547;28;20026;-80
2023/01/20 02:48:45;;;;;;;0.83;0.40;;;;;;;8.67;64.30;93752.72;5030415;28;20501;-79
2023/01/20 02:51:36;;;;;;;1.95;0.55;;;;;;;8.74;63.63;93768.13;5046443;28;20873;-79
2023/01/20 02:54:05;;;;;;;0.90;0.40;;;;;;;8.71;63.36;93758.03;5063020;28;20043;-78
2023/01/20 02:56:31;;;;;;;2.25;0.60;;;;;;;8.64;63.95;93756.34;5046093;28;20036;-79
2023/01/20 02:59:01;;;;;;;1.25;0.65;;;;;;;8.59;64.13;93746.00;5045556;28;20085;-79
2023/01/20 03:01:33;;;;;;;2.65;0.50;;;;;;;8.71;64.20;93753.31;5032107;28;20044;-79
2023/01/20 03:03:59;;;;;;;0.75;0.47;;;;;;;8.70;64.15;93729.13;5047205;28;20514;-79
2023/01/20 03:06:28;;;;;;;1.17;0.40;;;;;;;8.76;63.97;93728.06;5059830;28;20127;-81
2023/01/20 03:08:55;;;;;;;1.25;0.55;;;;;;;8.80;63.76;93743.63;5063704;28;20153;-80
2023/01/20 03:11:20;;;;;;;1.20;0.43;;;;;;;8.80;63.65;93757.31;5062646;28;20036;-80
2023/01/20 03:13:50;;;;;;;3.47;0.70;;;;;;;8.77;63.76;93761.72;5062988;28;20024;-79
2023/01/20 03:16:20;;;;;;;0.65;0.20;;;;;;;8.75;63.83;93737.50;5065467;28;20031;-79
2023/01/20 03:18:46;;;;;;;1.85;0.60;;;;;;;8.74;63.89;93752.44;5046328;28;20441;-78
2023/01/20 03:21:12;;;;;;;0.70;0.50;;;;;;;8.75;64.07;93753.19;5063527;28;20032;-79
2023/01/20 03:23:41;;;;;;;1.83;0.70;;;;;;;8.85;63.91;93762.19;5062909;28;20028;-80
2023/01/20 03:26:10;;;;;;;0.90;0.50;;;;;;;8.86;63.80;93761.75;5062920;28;20044;-79
2023/01/20 03:28:35;;;;;;;0.93;0.50;;;;;;;8.90;64.16;93762.38;5064363;28;20025;-79
2023/01/20 03:31:08;;;;;;;1.42;0.38;;;;;;;8.90;64.34;93745.16;5062262;28;20017;-79
2023/01/20 03:33:34;;;;;;;0.80;0.50;;;;;;;8.87;64.63;93749.56;5063231;28;20131;-79
2023/01/20 03:35:59;;;;;;;1.25;0.57;;;;;;;8.78;64.62;93744.06;5083206;28;20673;-79
2023/01/20 03:38:24;;;;;;;1.73;0.63;;;;;;;8.85;64.67;93760.22;5055794;28;20021;-80
2023/01/20 03:40:59;;;;;;;1.08;0.63;;;;;;;8.87;64.42;93757.78;5052328;28;20141;-79
2023/01/20 03:43:56;;;;;;;1.33;0.40;;;;;;;8.76;65.07;93754.72;5066960;28;20632;-79
2023/01/20 03:46:41;;;;;;;1.50;0.63;;;;;;;8.70;65.56;93762.75;5066064;28;20522;-78
2023/01/20 03:49:54;;;;;;;1.40;0.45;;;;;;;8.71;65.90;93756.06;5066653;28;20107;-80
2023/01/20 03:52:43;;;;;;;0.80;0.65;;;;;;;8.56;66.40;93744.16;5064143;28;20040;-79
2023/01/20 03:55:37;;;;;;;1.98;0.90;;;;;;;8.57;67.01;93736.72;5049842;28;20111;-78
2023/01/20 03:58:09;;;;;;;2.10;0.90;;;;;;;8.57;67.22;93739.44;5026810;28;20127;-77
2023/01/20 04:00:36;;;;;;;1.08;0.90;;;;;;;8.56;67.42;93725.00;5048236;28;20262;-77
2023/01/20 04:03:06;;;;;;;2.75;0.90;;;;;;;8.60;67.62;93722.88;5066554;28;20115;-78
2023/01/20 04:05:32;;;;;;;1.45;0.70;;;;;;;8.65;67.88;93721.50;5064323;28;20495;-78
2023/01/20 04:08:01;;;;;;;2.38;0.90;;;;;;;8.70;67.87;93715.44;5048032;28;20039;-78
2023/01/20 04:10:29;;;;;;;1.77;0.80;;;;;;;8.70;68.10;93716.19;5031642;28;20036;-79
2023/01/20 04:12:55;;;;;;;2.67;0.80;;;;;;;8.68;67.41;93704.16;5032650;28;20135;-80
2023/01/20 04:15:21;;;;;;;2.50;0.77;;;;;;;8.70;67.91;93713.44;5047973;28;20170;-79
2023/01/20 04:17:46;;;;;;;1.30;0.90;;;;;;;8.69;68.11;93711.16;5046923;28;20122;-79
2023/01/20 04:20:13;;;;;;;4.43;1.00;;;;;;;8.72;68.18;93705.56;5049264;28;20059;-79
2023/01/20 04:22:49;;;;;;;3.33;1.00;;;;;;;8.78;68.19;93692.00;5048341;28;20418;-79
2023/01/20 04:25:27;;;;;;;1.30;0.80;;;;;;;8.89;68.03;93688.81;5062728;28;20047;-79
2023/01/20 04:27:53;;;;;;;2.33;1.02;;;;;;;8.91;67.95;93684.41;5060262;28;20081;-79
2023/01/20 04:30:18;;;;;;;2.13;1.10;;;;;;;8.97;67.44;93679.84;5067490;28;20101;-79
2023/01/20 04:32:44;;;;;;;2.70;1.10;;;;;;;8.93;67.92;93692.16;5067440;28;20418;-81
2023/01/20 04:35:13;;;;;;;3.22;1.40;;;;;;;8.97;68.07;93687.31;5066485;28;20031;-77
2023/01/20 04:37:38;;;;;;;2.72;1.10;;;;;;;9.07;67.79;93677.09;5065359;28;20137;-79
2023/01/20 04:40:04;;;;;;;3.17;1.70;;;;;;;9.06;67.63;93681.81;5065760;28;20071;-79
2023/01/20 04:42:30;;;;;;;3.40;1.52;;;;;;;9.20;67.35;93702.38;5066125;28;20028;-79
2023/01/20 04:44:55;;;;;;;2.85;1.10;;;;;;;8.95;68.04;93695.22;5064893;28;20036;-79
2023/01/20 04:47:20;;;;;;;2.83;1.45;;;;;;;9.16;67.53;93702.53;5064862;28;20063;-79
2023/01/20 04:49:46;;;;;;;2.95;1.30;;;;;;;9.25;66.99;93702.53;5065980;28;20253;-79
2023/01/20 04:52:11;;;;;;;3.67;1.40;;;;;;;9.37;66.67;93706.34;5069550;28;20029;-80
2023/01/20 04:54:37;;;;;;;4.55;1.90;;;;;;;9.44;66.53;93721.72;5067745;28;20522;-78
2023/01/20 04:57:02;;;;;;;3.22;1.33;;;;;;;9.48;66.54;93717.59;5063774;28;20472;-79
2023/01/20 04:59:28;;;;;;;3.95;1.15;;;;;;;9.48;66.10;93719.59;5064607;28;20060;-79
2023/01/20 05:01:53;;;;;;;4.13;1.30;;;;;;;9.51;65.62;93740.59;5066240;28;20036;-79
2023/01/20 05:04:18;;;;;;;4.97;1.80;;;;;;;9.50;65.87;93753.56;5068622;28;20111;-79
2023/01/20 05:06:44;;;;;;;3.50;1.65;;;;;;;9.50;66.16;93755.53;5080009;28;20033;-77
2023/01/20 05:09:14;;;;;;;2.30;1.42;;;;;;;9.44;66.33;93757.38;5066903;28;20033;-78
2023/01/20 05:11:40;;;;;;;2.40;1.50;;;;;;;9.36;66.62;93743.22;5049345;28;20025;-78
2023/01/20 05:14:05;;;;;;;2.63;1.40;;;;;;;9.55;65.99;93760.41;5065246;28;20055;-78
2023/01/20 05:16:32;;;;;;;2.20;1.40;;;;;;;9.57;65.74;93728.53;5065832;28;20052;-78
2023/01/20 05:18:58;;;;;;;2.35;1.70;;;;;;;9.64;65.63;93732.22;5067652;28;20414;-81
2023/01/20 05:21:26;;;;;;;4.07;2.33;;;;;;;9.70;65.79;93730.38;5066726;28;20032;-80
2023/01/20 05:23:55;;;;;;;4.20;2.20;;;;;;;9.76;66.34;93731.28;5066068;28;20029;-80
2023/01/20 05:26:22;;;;;;;4.15;2.60;;;;;;;9.75;66.77;93741.50;5065326;28;20048;-80
2023/01/20 05:28:47;;;;;;;6.05;3.47;;;;;;;9.68;66.93;93739.03;5048481;28;20024;-80
2023/01/20 05:31:13;;;;;;;5.70;3.85;;;;;;;9.69;66.96;93751.56;5064649;28;20017;-79
2023/01/20 05:33:38;;;;;;;9.02;4.40;;;;;;;9.49;67.25;93754.78;5064860;28;20403;-79
2023/01/20 05:36:08;;;;;;;7.90;3.90;;;;;;;9.57;67.49;93760.72;5066013;28;20021;-80
2023/01/20 05:38:33;;;;;;;4.93;3.50;;;;;;;9.61;67.63;93772.28;5065438;28;20072;-80
2023/01/20 05:41:00;;;;;;;6.20;3.40;;;;;;;9.55;67.39;93754.94;5047583;28;20489;-78
2023/01/20 05:43:25;;;;;;;8.43;3.40;;;;;;;9.62;67.12;93757.34;5047541;28;20027;-81
2023/01/20 05:45:51;;;;;;;5.97;3.03;;;;;;;9.60;66.83;93726.88;5070644;28;20020;-80
2023/01/20 05:48:16;;;;;;;7.00;3.03;;;;;;;9.72;66.90;93731.44;5068628;28;20113;-82
2023/01/20 05:50:42;;;;;;;5.10;3.30;;;;;;;9.78;66.87;93718.59;5064673;28;20435;-82
2023/01/20 05:53:07;;;;;;;6.63;3.65;;;;;;;9.74;66.82;93698.78;5066789;28;20402;-85
2023/01/20 05:55:33;;;;;;;7.10;4.20;;;;;;;9.81;66.74;93723.19;5065385;28;20056;-81
2023/01/20 05:58:01;;;;;;;8.80;4.03;;;;;;;9.71;66.81;93716.19;5065543;28;20116;-81
2023/01/20 06:00:27;;;;;;;10.27;4.93;;;;;;;9.80;66.75;93696.19;5065111;28;20025;-81
2023/01/20 06:02:52;;;;;;;6.50;4.15;;;;;;;9.79;66.45;93731.09;5065245;28;20099;-80
2023/01/20 06:05:18;;;;;;;6.90;4.38;;;;;;;9.55;67.18;93760.41;5064727;28;20029;-79
2023/01/20 06:07:43;;;;;;;6.95;4.35;;;;;;;9.55;67.39;93730.22;5065222;28;20386;-81
2023/01/20 06:10:09;;;;;;;7.07;4.25;;;;;;;9.49;67.43;93710.88;5064801;28;20455;-80
2023/01/20 06:12:34;;;;;;;7.55;4.57;;;;;;;9.55;67.58;93739.22;5064849;28;20036;-79
2023/01/20 06:15:00;;;;;;;6.95;4.35;;;;;;;9.66;67.33;93718.78;5064456;28;20066;-79
2023/01/20 06:17:25;;;;;;;6.53;4.45;;;;;;;9.71;66.93;93712.69;5065519;28;20079;-80
2023/01/20 06:19:51;;;;;;;13.80;11.82;;;;;;;9.72;66.80;93733.41;5066323;28;20131;-81
2023/01/20 06:22:19;;;;;;;16.10;11.93;;;;;;;9.71;66.86;93767.56;5065142;28;20089;-84
2023/01/20 06:24:44;;;;;;;15.85;10.15;;;;;;;9.68;67.07;93758.25;5066611;28;20020;-85
2023/01/20 06:27:10;;;;;;;15.93;9.20;;;;;;;9.64;67.24;93732.22;5066743;28;20423;-84
2023/01/20 06:29:35;;;;;;;14.93;9.70;;;;;;;9.67;67.33;93745.00;5066999;28;20029;-84
2023/01/20 06:32:01;;;;;;;17.20;10.95;;;;;;;9.67;67.43;93750.50;5067730;28;20078;-85
2023/01/20 06:34:26;;;;;;;16.50;9.40;;;;;;;9.67;67.49;93729.31;5066578;28;20029;-84
2023/01/20 06:36:51;;;;;;;12.38;7.88;;;;;;;9.69;67.58;93732.38;5065416;28;20024;-81
2023/01/20 06:39:17;;;;;;;12.10;7.70;;;;;;;9.72;67.38;93738.91;5064976;28;20025;-79
2023/01/20 06:41:42;;;;;;;12.18;7.32;;;;;;;9.68;67.41;93730.81;5068709;28;20024;-82
2023/01/20 06:44:08;;;;;;;8.20;6.28;;;;;;;9.70;67.44;93730.38;5047406;28;20052;-75
2023/01/20 06:46:33;;;;;;;7.93;5.60;;;;;;;9.73;67.36;93723.94;5063099;28;20431;-76
2023/01/20 06:49:01;;;;;;;7.15;5.50;;;;;;;9.74;67.36;93726.22;5063727;28;20112;-78
2023/01/20 06:51:29;;;;;;;11.98;7.15;;;;;;;9.77;67.39;93716.31;5063774;28;20693;-79
2023/01/20 06:53:54;;;;;;;12.07;8.13;;;;;;;9.77;67.29;93722.56;5064121;28;20025;-78
2023/01/20 06:56:20;;;;;;;13.52;8.80;;;;;;;9.85;66.92;93728.50;5064179;28;20083;-79
2023/01/20 06:58:45;;;;;;;13.82;10.05;;;;;;;9.85;66.86;93734.75;5045178;28;20075;-77
2023/01/20 07:01:23;;;;;;;14.63;10.88;;;;;;;9.87;67.05;93728.06;5062331;28;20039;-79
2023/01/20 07:03:49;;;;;;;16.65;12.40;;;;;;;9.85;67.13;93728.50;5061116;28;20111;-77
2023/01/20 07:06:26;;;;;;;21.23;14.48;;;;;;;9.88;67.45;93735.81;5063500;28;20111;-78
2023/01/20 07:08:52;;;;;;;22.02;14.65;;;;;;;9.87;67.27;93719.81;5062781;28;20028;-77
2023/01/20 07:11:17;;;;;;;19.75;12.05;;;;;;;9.89;67.36;93714.63;5060748;28;20025;-77
2023/01/20 07:13:43;;;;;;;17.15;12.48;;;;;;;9.91;67.11;93723.16;5060500;28;20029;-78
2023/01/20 07:16:09;;;;;;;18.60;13.32;;;;;;;9.92;66.87;93719.97;5062192;28;20124;-78
2023/01/20 07:18:35;;;;;;;15.88;12.20;;;;;;;9.92;66.88;93722.72;5065259;28;20021;-77
2023/01/20 07:21:01;;;;;;;11.00;8.07;;;;;;;9.92;66.70;93719.19;5065307;28;20024;-79
2023/01/20 07:23:27;;;;;;;10.48;7.78;;;;;;;9.94;66.71;93722.25;5066927;28;20451;-79
2023/01/20 07:26:06;;;;;;;13.48;8.23;;;;;;;9.95;66.64;93727.25;5084683;28;20036;-78
2023/01/20 07:28:33;;;;;;;8.50;6.65;;;;;;;9.84;66.51;93716.75;5066365;28;20025;-79
2023/01/20 07:31:06;;;;;;;10.38;8.43;;;;;;;9.82;66.79;93712.97;5064401;28;20111;-77
2023/01/20 07:33:32;;;;;;;11.48;8.48;;;;;;;9.80;66.83;93710.66;5045509;28;20550;-78
2023/01/20 07:35:58;;;;;;;8.85;6.70;;;;;;;9.78;66.84;93709.63;5065129;28;20080;-80
2023/01/20 07:38:23;;;;;;;12.35;8.13;;;;;;;9.78;66.90;93704.88;5047233;28;20046;-79
2023/01/20 07:40:49;;;;;;;11.25;7.43;;;;;;;9.79;66.94;93698.16;5058564;28;20025;-78
2023/01/20 07:43:14;;;;;;;12.00;7.75;;;;;;;9.79;67.31;93692.69;5064830;28;20548;-78
2023/01/20 07:45:39;;;;;;;12.43;8.32;;;;;;;9.84;67.39;93694.81;5060643;28;20483;-77
2023/01/20 07:48:06;;;;;;;10.80;7.28;;;;;;;9.83;67.08;93696.03;5062512;28;20094;-78
2023/01/20 07:50:35;;;;;;;10.57;8.02;;;;;;;9.83;66.89;93689.78;5062761;28;20037;-78
2023/01/20 07:53:01;;;;;;;12.93;7.85;;;;;;;9.80;66.84;93691.44;5062860;28;20039;-78
2023/01/20 07:55:26;;;;;;;11.90;7.18;;;;;;;9.70;67.38;93686.47;5062257;28;20033;-78
2023/01/20 07:57:52;;;;;;;9.80;6.68;;;;;;;9.81;66.91;93687.50;5063361;28;20020;-80
2023/01/20 08:00:18;;;;;;;10.10;6.38;;;;;;;9.81;66.76;93676.53;5062869;28;20068;-79
2023/01/20 08:02:43;;;;;;;9.43;5.18;;;;;;;9.77;66.52;93670.44;5062599;28;20355;-80
2023/01/20 08:05:09;;;;;;;7.00;4.35;;;;;;;9.78;66.36;93688.41;5047450;28;20123;-80
2023/01/20 08:07:34;;;;;;;6.50;4.57;;;;;;;9.67;66.66;93692.88;5063413;28;20086;-78
2023/01/20 08:09:59;;;;;;;6.10;4.35;;;;;;;9.48;67.08;93679.19;5063493;28;20024;-79
2023/01/20 08:12:25;;;;;;;6.95;3.72;;;;;;;9.40;67.55;93666.25;5063323;28;20024;-80
2023/01/20 08:14:50;;;;;;;5.15;3.75;;;;;;;9.30;68.14;93646.31;5046667;28;20025;-79
2023/01/20 08:17:15;;;;;;;5.57;3.97;;;;;;;9.38;67.82;93641.25;5064898;28;20043;-79
2023/01/20 08:19:41;;;;;;;5.95;4.10;;;;;;;9.38;67.44;93633.78;5064670;28;20071;-79
2023/01/20 08:22:06;;;;;;;7.72;4.80;;;;;;;9.52;67.05;93659.84;5068130;28;20181;-78
2023/01/20 08:24:32;;;;;;;6.28;3.70;;;;;;;9.44;66.29;93664.88;5066139;28;20116;-78
2023/01/20 08:26:58;;;;;;;4.72;3.20;;;;;;;9.57;65.75;93672.91;5068429;28;20082;-79
2023/01/20 08:29:24;;;;;;;4.70;3.25;;;;;;;9.53;65.08;93670.34;5067929;28;20028;-78
2023/01/20 08:31:49;;;;;;;5.50;3.00;;;;;;;9.55;65.13;93667.88;5069326;28;20103;-78
2023/01/20 08:34:17;;;;;;;4.90;3.10;;;;;;;9.45;65.00;93665.63;5068671;28;20386;-80
2023/01/20 08:36:43;;;;;;;5.47;3.17;;;;;;;9.31;66.01;93662.31;5068461;28;20039;-79
2023/01/20 08:39:11;;;;;;;5.60;4.15;;;;;;;9.13;66.99;93659.59;5050796;28;20410;-78
2023/01/20 08:41:37;;;;;;;6.55;3.45;;;;;;;9.24;66.82;93648.91;5066387;28;20038;-79
2023/01/20 08:44:05;;;;;;;8.45;3.88;;;;;;;9.36;66.68;93636.25;5067396;28;20024;-79
2023/01/20 08:46:30;;;;;;;6.95;4.00;;;;;;;9.45;66.62;93614.25;5067293;28;20020;-79
2023/01/20 08:48:56;;;;;;;5.72;4.20;;;;;;;9.53;66.67;93617.47;5050106;28;20158;-78
2023/01/20 08:51:24;;;;;;;8.23;4.80;;;;;;;9.58;66.54;93623.09;5067024;28;20493;-79
2023/01/20 08:53:50;;;;;;;8.05;4.93;;;;;;;9.56;66.55;93606.31;5050091;28;20039;-79
2023/01/20 08:56:16;;;;;;;10.05;5.18;;;;;;;9.57;66.72;93616.06;5067795;28;20025;-78
2023/01/20 08:58:42;;;;;;;8.98;5.63;;;;;;;9.63;66.83;93604.47;5048941;28;20501;-79
2023/01/20 09:01:12;;;;;;;9.52;5.40;;;;;;;9.91;65.79;93603.13;5067068;28;20017;-82
2023/01/20 09:03:38;;;;;;;6.90;4.78;;;;;;;9.92;65.31;93607.41;5065581;28;20123;-80
2023/01/20 09:06:05;;;;;;;8.05;5.45;;;;;;;9.84;65.93;93615.19;5066347;28;20028;-78
2023/01/20 09:08:31;;;;;;;7.40;4.85;;;;;;;9.80;65.76;93608.34;5066237;28;20128;-78
2023/01/20 09:11:08;;;;;;;6.55;4.72;;;;;;;9.91;65.71;93605.88;5066233;28;20078;-79
2023/01/20 09:13:33;;;;;;;7.15;4.15;;;;;;;9.91;65.69;93611.34;5049889;28;20047;-80
2023/01/20 09:15:59;;;;;;;6.45;4.20;;;;;;;9.99;65.80;93607.06;5066907;28;20498;-81
2023/01/20 09:18:25;;;;;;;8.68;4.35;;;;;;;9.88;65.07;93606.06;5049719;28;20041;-80
2023/01/20 09:20:50;;;;;;;5.72;3.58;;;;;;;9.87;65.37;93613.53;5048392;28;20048;-78
2023/01/20 09:23:16;;;;;;;5.60;3.70;;;;;;;9.96;65.43;93618.22;5066969;28;20025;-78
2023/01/20 09:25:41;;;;;;;5.57;3.10;;;;;;;9.77;64.40;93601.81;5066550;28;20032;-80
2023/01/20 09:28:07;;;;;;;5.22;3.03;;;;;;;9.84;64.53;93611.69;5068316;28;20028;-80
2023/01/20 09:30:32;;;;;;;4.97;3.10;;;;;;;9.96;64.32;93607.22;5065454;28;20035;-79
2023/01/20 09:32:58;;;;;;;4.28;2.80;;;;;;;10.10;64.07;93598.31;5065703;28;20440;-79
2023/01/20 09:35:23;;;;;;;6.15;2.92;;;;;;;10.30;63.55;93595.78;5067461;28;20028;-80
2023/01/20 09:43:53;;;;;;;3.60;2.30;;;;;;;10.58;61.44;93599.09;5065608;28;20417;-79
2023/01/20 09:46:21;;;;;;;3.85;3.08;;;;;;;10.58;61.23;93590.09;5067636;28;20029;-77
2023/01/20 09:54:55;;;;;;;2.63;1.75;;;;;;;10.33;60.68;93594.84;5067724;28;20086;-76
2023/01/20 09:57:23;;;;;;;3.10;1.48;;;;;;;10.20;61.48;93610.75;5066485;28;20123;-78
2023/01/20 09:59:53;;;;;;;2.40;1.45;;;;;;;10.14;61.05;93595.38;5065181;28;20047;-78
2023/01/20 10:02:26;;;;;;;5.05;1.63;;;;;;;10.05;61.84;93586.00;5066136;28;20032;-78
2023/01/20 10:04:58;;;;;;;1.80;1.20;;;;;;;10.08;62.19;93587.78;5065080;28;20021;-79
2023/01/20 10:07:28;;;;;;;2.83;1.38;;;;;;;10.06;62.79;93586.75;5065269;28;20490;-76
2023/01/20 10:09:57;;;;;;;2.83;1.38;;;;;;;10.32;62.62;93582.34;5064834;28;20051;-76
2023/01/20 10:12:32;;;;;;;3.65;1.30;;;;;;;10.64;62.12;93578.00;5065320;28;20059;-77
2023/01/20 10:15:08;;;;;;;2.50;1.33;;;;;;;10.86;62.03;93580.41;5066145;28;20028;-83
2023/01/20 10:17:36;;;;;;;2.95;1.75;;;;;;;11.21;61.55;93574.28;5047681;28;20076;-76
2023/01/20 10:20:07;;;;;;;4.57;2.00;;;;;;;13.94;54.93;93564.41;5066505;28;20024;-76
2023/01/20 10:22:47;;;;;;;5.75;2.17;;;;;;;14.80;52.28;93542.28;5069375;28;20024;-76
2023/01/20 10:25:16;;;;;;;3.85;2.22;;;;;;;15.88;50.59;93539.16;5064698;28;20150;-77
2023/01/20 10:27:58;;;;;;;3.90;2.55;;;;;;;15.59;50.73;93549.44;5065057;28;20024;-77
2023/01/20 10:30:28;;;;;;;5.50;2.35;;;;;;;15.22;50.84;93544.13;5064477;28;20060;-77
2023/01/20 10:33:10;;;;;;;3.30;2.10;;;;;;;15.17;50.52;93552.44;5048094;28;20028;-79
2023/01/20 10:35:39;;;;;;;3.95;2.30;;;;;;;15.08;50.47;93545.88;5065076;28;20483;-79
2023/01/20 10:38:24;;;;;;;4.03;1.98;;;;;;;14.82;50.28;93551.56;5064309;28;20025;-78
2023/01/20 10:41:14;;;;;;;3.08;1.95;;;;;;;14.70;50.74;93546.50;5064497;28;20180;-77
2023/01/20 10:43:40;;;;;;;3.13;1.77;;;;;;;14.54;51.17;93548.69;5063173;28;20158;-79
2023/01/20 10:46:24;;;;;;;2.55;1.30;;;;;;;14.44;49.97;93547.34;5064340;28;20020;-78
2023/01/20 10:49:11;;;;;;;2.60;1.75;;;;;;;14.33;49.81;93541.75;5065934;28;20051;-78
2023/01/20 10:51:49;;;;;;;2.90;1.65;;;;;;;14.26;50.23;93539.47;5064893;28;20047;-79
2023/01/20 10:54:32;;;;;;;3.17;1.95;;;;;;;14.11;51.55;93536.91;5066398;28;20028;-77
2023/01/20 10:56:58;;;;;;;3.22;2.03;;;;;;;14.00;52.25;93545.88;5064855;28;20028;-79
2023/01/20 10:59:49;;;;;;;3.75;2.13;;;;;;;13.87;52.63;93548.28;5063991;28;20525;-78
2023/01/20 11:02:21;;;;;;;3.67;2.55;;;;;;;13.73;53.20;93551.94;5064354;28;20030;-80
2023/01/20 11:04:53;;;;;;;4.38;2.88;;;;;;;13.57;53.51;93556.06;5063078;28;20021;-78
2023/01/20 11:07:18;;;;;;;5.80;2.97;;;;;;;13.45;54.12;93548.94;5064246;28;20036;-79
2023/01/20 11:09:45;;;;;;;5.35;3.72;;;;;;;13.31;54.40;93552.59;5065201;28;20029;-79
2023/01/20 11:12:20;;;;;;;7.03;3.80;;;;;;;13.15;54.44;93560.19;5047254;28;20112;-79
2023/01/20 11:14:45;;;;;;;8.88;4.70;;;;;;;12.99;54.90;93558.78;5064144;28;20050;-80
2023/01/20 11:17:14;;;;;;;7.43;4.60;;;;;;;12.86;55.48;93557.63;5066102;28;20040;-77
2023/01/20 11:19:54;;;;;;;5.70;3.60;;;;;;;12.66;56.61;93564.66;5064658;28;20568;-77
2023/01/20 11:22:32;;;;;;;5.80;3.47;;;;;;;12.53;56.96;93567.03;5065360;28;20028;-80
2023/01/20 11:24:58;;;;;;;6.68;4.20;;;;;;;12.35;57.69;93576.31;5047470;28;20059;-77
2023/01/20 11:27:27;;;;;;;6.78;3.42;;;;;;;12.12;58.20;93567.00;5064598;28;20036;-79
2023/01/20 11:29:59;;;;;;;5.75;1.98;;;;;;;12.01;55.22;93568.81;5063820;28;20398;-78
2023/01/20 11:32:27;;;;;;;1.60;0.95;;;;;;;11.75;52.59;93576.91;5064570;28;20573;-77
2023/01/20 11:34:53;;;;;;;1.25;0.55;;;;;;;11.27;53.11;93574.38;5062952;28;20107;-78
2023/01/20 11:37:20;;;;;;;1.27;0.52;;;;;;;10.85;54.21;93570.66;5064427;28;20525;-77
2023/01/20 11:39:49;;;;;;;1.02;0.43;;;;;;;10.67;54.00;93567.28;5063462;28;20024;-77
2023/01/20 11:42:22;;;;;;;2.08;0.50;;;;;;;10.23;55.05;93554.94;5065225;28;20073;-78
2023/01/20 11:44:55;;;;;;;3.28;0.55;;;;;;;10.10;56.59;93590.09;5047481;28;20077;-78
2023/01/20 11:47:23;;;;;;;2.10;0.70;;;;;;;9.89;57.50;93585.63;5064851;28;20029;-75
2023/01/20 11:50:04;;;;;;;2.30;0.90;;;;;;;9.74;57.83;93600.00;5065347;28;20036;-79
2023/01/20 11:52:38;;;;;;;2.00;1.00;;;;;;;9.40;58.45;93609.41;5062743;28;20101;-78
2023/01/20 11:55:11;;;;;;;2.60;0.88;;;;;;;9.22;58.23;93599.22;5065433;28;20039;-80
2023/01/20 11:57:38;;;;;;;1.30;0.70;;;;;;;8.96;58.47;93598.06;5069051;28;20024;-76
2023/01/20 12:00:31;;;;;;;1.05;0.73;;;;;;;8.74;60.14;93603.72;5067511;28;20028;-77